createdAt,value
2018-03-16T00:01:34.163Z,6.30
2018-03-16T00:04:01.768Z,6.20
2018-03-16T00:06:29.325Z,6.30
2018-03-16T00:08:56.899Z,6.20
2018-03-16T00:11:24.523Z,6.20
2018-03-16T00:13:52.070Z,6.10
2018-03-16T00:16:19.640Z,6.10
2018-03-16T00:18:47.243Z,6.10
2018-03-16T00:21:14.788Z,6.00
2018-03-16T00:23:42.351Z,6.10
2018-03-16T00:26:09.895Z,6.10
2018-03-16T00:28:37.447Z,6.00
2018-03-16T00:31:05.088Z,6.00
2018-03-16T00:33:33.440Z,6.00
2018-03-16T00:36:01.038Z,6.00
2018-03-16T00:38:29.399Z,6.00
2018-03-16T00:52:23.760Z,6.00
2018-03-16T00:54:52.096Z,6.00
2018-03-16T00:57:19.656Z,6.00
2018-03-16T00:59:47.224Z,6.10
2018-03-16T01:02:14.797Z,6.10
2018-03-16T01:04:42.387Z,6.10
2018-03-16T01:07:09.970Z,6.10
2018-03-16T01:09:37.539Z,6.10
2018-03-16T01:12:05.140Z,6.10
2018-03-16T01:14:32.743Z,6.10
2018-03-16T01:17:01.110Z,6.00
2018-03-16T01:19:28.701Z,6.10
2018-03-16T01:21:57.032Z,6.10
2018-03-16T01:24:24.612Z,6.00
2018-03-16T01:26:52.196Z,6.10
2018-03-16T01:29:19.747Z,6.00
2018-03-16T01:31:47.313Z,6.10
2018-03-16T01:34:14.877Z,6.00
2018-03-16T01:36:42.466Z,6.00
2018-03-16T01:39:10.047Z,6.00
2018-03-16T01:41:37.621Z,6.00
2018-03-16T01:44:05.227Z,5.90
2018-03-16T01:46:33.587Z,6.00
2018-03-16T01:49:01.187Z,5.90
2018-03-16T01:51:28.791Z,5.90
2018-03-16T01:53:56.360Z,5.90
2018-03-16T01:56:23.909Z,5.90
2018-03-16T01:58:52.263Z,6.00
2018-03-16T02:01:19.875Z,6.00
2018-03-16T02:03:48.246Z,6.00
2018-03-16T02:06:15.841Z,6.00
2018-03-16T02:08:44.170Z,6.00
2018-03-16T02:11:11.745Z,6.00
2018-03-16T02:13:39.320Z,6.10
2018-03-16T02:16:06.896Z,6.10
2018-03-16T02:18:34.458Z,6.10
2018-03-16T02:21:02.021Z,6.10
2018-03-16T02:23:29.588Z,6.20
2018-03-16T02:25:57.156Z,6.20
2018-03-16T02:28:24.712Z,6.20
2018-03-16T02:30:53.052Z,6.10
2018-03-16T02:33:20.700Z,6.10
2018-03-16T02:35:48.245Z,6.10
2018-03-16T02:38:16.580Z,6.20
2018-03-16T02:40:44.145Z,6.20
2018-03-16T02:43:11.727Z,6.20
2018-03-16T02:45:39.294Z,6.10
2018-03-16T02:48:06.927Z,6.10
2018-03-16T02:50:35.333Z,6.00
2018-03-16T02:53:02.925Z,6.00
2018-03-16T02:55:30.477Z,6.00
2018-03-16T02:57:58.049Z,6.00
2018-03-16T03:00:25.907Z,6.00
2018-03-16T03:02:54.237Z,5.90
2018-03-16T03:05:21.785Z,5.90
2018-03-16T03:07:49.346Z,5.90
2018-03-16T03:10:17.723Z,5.90
2018-03-16T03:12:45.319Z,5.90
2018-03-16T03:15:12.947Z,5.90
2018-03-16T03:17:40.524Z,5.90
2018-03-16T03:20:08.088Z,5.90
2018-03-16T03:22:35.639Z,5.90
2018-03-16T03:25:03.245Z,5.90
2018-03-16T03:27:30.835Z,5.90
2018-03-16T03:29:59.170Z,5.90
2018-03-16T03:32:26.787Z,5.90
2018-03-16T03:34:54.340Z,5.90
2018-03-16T03:37:21.891Z,5.90
2018-03-16T03:39:49.428Z,5.90
2018-03-16T03:42:17.009Z,5.90
2018-03-16T03:44:44.547Z,5.90
2018-03-16T03:47:12.924Z,5.90
2018-03-16T03:49:40.515Z,5.80
2018-03-16T03:52:08.845Z,5.80
2018-03-16T03:54:36.403Z,5.80
2018-03-16T03:57:03.962Z,5.70
2018-03-16T03:59:32.294Z,5.60
2018-03-16T04:01:59.861Z,5.60
2018-03-16T04:04:27.440Z,5.60
2018-03-16T04:06:55.033Z,5.60
2018-03-16T04:09:22.604Z,5.60
2018-03-16T04:11:50.174Z,5.60
2018-03-16T04:14:17.753Z,5.60
2018-03-16T04:16:45.300Z,5.60
2018-03-16T04:19:12.868Z,5.60
2018-03-16T04:21:40.442Z,5.60
2018-03-16T04:24:08.013Z,5.60
2018-03-16T04:26:35.611Z,5.50
2018-03-16T04:29:03.205Z,5.50
2018-03-16T04:31:31.559Z,5.50
2018-03-16T04:33:59.135Z,5.40
2018-03-16T04:36:26.764Z,5.50
2018-03-16T04:38:54.317Z,5.50
2018-03-16T04:41:22.657Z,5.50
2018-03-16T04:43:50.306Z,5.50
2018-03-16T04:46:17.881Z,5.50
2018-03-16T04:48:45.461Z,5.50
2018-03-16T04:51:12.990Z,5.50
2018-03-16T04:53:40.555Z,5.50
2018-03-16T04:56:08.910Z,5.40
2018-03-16T04:58:36.439Z,5.40
2018-03-16T05:01:04.747Z,5.30
2018-03-16T05:03:32.324Z,5.30
2018-03-16T05:05:59.921Z,5.40
2018-03-16T05:08:27.516Z,5.40
2018-03-16T05:10:55.077Z,5.30
2018-03-16T05:13:22.688Z,5.40
2018-03-16T05:15:50.262Z,5.30
2018-03-16T05:18:17.811Z,5.30
2018-03-16T05:20:45.380Z,5.20
2018-03-16T05:23:13.549Z,5.20
2018-03-16T05:25:41.136Z,5.00
2018-03-16T05:28:08.676Z,4.90
2018-03-16T05:30:36.351Z,5.00
2018-03-16T05:33:03.885Z,5.10
2018-03-16T05:35:31.533Z,5.20
2018-03-16T05:37:59.123Z,5.20
2018-03-16T05:40:27.459Z,5.20
2018-03-16T05:42:55.057Z,5.20
2018-03-16T05:45:22.626Z,5.30
2018-03-16T05:47:50.186Z,5.30
2018-03-16T05:50:17.794Z,5.30
2018-03-16T05:52:45.516Z,5.20
2018-03-16T05:55:13.047Z,5.10
2018-03-16T05:57:41.360Z,5.10
2018-03-16T06:00:19.212Z,5.10
2018-03-16T06:02:46.796Z,5.20
2018-03-16T06:08:29.768Z,5.50
2018-03-16T06:10:57.372Z,5.50
2018-03-16T06:13:25.179Z,5.50
2018-03-16T06:15:52.793Z,5.50
2018-03-16T06:18:23.795Z,5.60
2018-03-16T06:20:51.449Z,5.70
2018-03-16T06:23:18.991Z,5.70
2018-03-16T06:25:47.400Z,5.80
2018-03-16T06:28:21.269Z,5.80
2018-03-16T06:30:48.852Z,5.80
2018-03-16T06:33:16.448Z,5.90
2018-03-16T06:35:44.081Z,6.00
2018-03-16T06:38:11.681Z,6.00
2018-03-16T06:40:39.253Z,6.20
2018-03-16T06:43:06.809Z,6.30
2018-03-16T06:45:34.429Z,6.30
2018-03-16T06:48:02.000Z,6.30
2018-03-16T06:50:29.560Z,6.40
2018-03-16T06:52:57.116Z,6.40
2018-03-16T06:55:24.925Z,6.50
2018-03-16T06:57:52.544Z,6.50
2018-03-16T07:00:20.108Z,6.70
2018-03-16T07:02:47.727Z,6.70
2018-03-16T07:05:15.309Z,6.90
2018-03-16T07:07:44.796Z,7.30
2018-03-16T07:10:12.440Z,7.80
2018-03-16T07:12:39.991Z,8.50
2018-03-16T07:15:20.276Z,9.90
2018-03-16T07:17:47.824Z,9.80
2018-03-16T07:20:15.388Z,10.30
2018-03-16T07:22:42.930Z,10.30
2018-03-16T07:25:10.480Z,11.00
2018-03-16T07:27:38.069Z,11.00
2018-03-16T07:30:05.659Z,11.50
2018-03-16T07:32:33.219Z,11.10
2018-03-16T07:35:00.792Z,10.80
2018-03-16T07:37:28.363Z,11.20
2018-03-16T07:39:55.938Z,11.50
2018-03-16T07:42:23.549Z,12.30
2018-03-16T07:44:51.862Z,11.80
2018-03-16T07:47:19.465Z,11.80
2018-03-16T07:49:47.007Z,10.90
2018-03-16T07:52:14.624Z,11.10
2018-03-16T07:54:42.188Z,10.70
2018-03-16T07:57:09.820Z,10.40
2018-03-16T07:59:38.195Z,10.80
2018-03-16T08:02:05.759Z,10.80
2018-03-16T08:04:33.305Z,10.30
2018-03-16T08:07:00.898Z,10.20
2018-03-16T08:09:28.442Z,10.90
2018-03-16T08:11:56.820Z,13.00
2018-03-16T08:14:25.087Z,14.00
2018-03-16T08:16:52.628Z,13.90
2018-03-16T08:19:20.178Z,13.60
2018-03-16T08:21:47.783Z,13.20
2018-03-16T08:24:16.105Z,14.00
2018-03-16T08:26:43.668Z,14.00
2018-03-16T08:29:11.259Z,14.30
2018-03-16T08:31:38.798Z,15.00
2018-03-16T08:34:07.175Z,16.70
2018-03-16T08:36:35.784Z,16.20
2018-03-16T08:39:04.160Z,15.50
2018-03-16T08:41:32.507Z,16.50
2018-03-16T08:44:00.063Z,16.40
2018-03-16T08:46:27.683Z,15.30
2018-03-16T08:48:55.252Z,15.10
2018-03-16T08:51:23.584Z,15.40
2018-03-16T08:53:51.179Z,15.40
2018-03-16T08:56:18.809Z,16.20
2018-03-16T08:58:47.121Z,14.70
2018-03-16T09:01:14.720Z,14.60
2018-03-16T09:03:42.343Z,13.10
2018-03-16T09:06:09.971Z,12.90
2018-03-16T09:08:37.553Z,12.60
2018-03-16T09:11:05.131Z,12.70
2018-03-16T09:13:32.687Z,12.80
2018-03-16T09:16:00.231Z,12.60
2018-03-16T09:18:27.818Z,12.20
2018-03-16T09:20:55.413Z,12.60
2018-03-16T09:23:23.048Z,12.20
2018-03-16T09:25:50.575Z,11.80
2018-03-16T09:28:18.145Z,12.20
2018-03-16T09:30:45.785Z,12.10
2018-03-16T09:33:13.754Z,12.20
2018-03-16T09:35:41.336Z,12.40
2018-03-16T09:38:08.982Z,12.30
2018-03-16T09:40:36.553Z,12.20
2018-03-16T09:43:04.205Z,11.70
2018-03-16T09:45:31.756Z,11.50
2018-03-16T09:47:59.314Z,11.60
2018-03-16T09:50:27.628Z,11.50
2018-03-16T09:52:55.200Z,11.40
2018-03-16T09:55:46.524Z,11.40
2018-03-16T09:58:14.113Z,11.30
2018-03-16T10:00:42.485Z,11.80
2018-03-16T10:03:10.066Z,11.80
2018-03-16T10:05:37.640Z,12.00
2018-03-16T10:08:05.199Z,12.00
2018-03-16T10:10:32.759Z,12.30
2018-03-16T10:13:00.333Z,12.40
2018-03-16T10:15:27.905Z,12.20
2018-03-16T10:17:55.528Z,12.80
2018-03-16T10:20:23.136Z,13.00
2018-03-16T10:22:50.704Z,13.10
2018-03-16T10:25:18.272Z,12.70
2018-03-16T10:27:45.811Z,12.70
2018-03-16T10:30:14.168Z,12.10
2018-03-16T10:32:42.479Z,12.00
2018-03-16T10:35:10.096Z,12.00
2018-03-16T10:37:37.671Z,11.70
2018-03-16T10:40:05.233Z,11.70
2018-03-16T10:42:32.828Z,11.50
2018-03-16T10:45:00.398Z,11.70
2018-03-16T10:47:27.977Z,11.80
2018-03-16T10:49:55.520Z,11.90
2018-03-16T10:52:23.162Z,11.90
2018-03-16T10:54:51.512Z,11.70
2018-03-16T10:57:19.129Z,11.70
2018-03-16T10:59:47.463Z,11.70
2018-03-16T11:02:19.910Z,11.70
2018-03-16T11:08:07.342Z,11.80
2018-03-16T11:10:34.864Z,11.90
2018-03-16T11:13:03.162Z,12.10
2018-03-16T11:15:30.696Z,12.10
2018-03-16T11:17:58.987Z,11.80
2018-03-16T11:20:27.288Z,11.30
2018-03-16T11:22:54.816Z,11.30
2018-03-16T11:25:23.112Z,11.40
2018-03-16T11:27:50.637Z,11.40
2018-03-16T11:30:18.168Z,11.40
2018-03-16T11:32:45.701Z,11.20
2018-03-16T11:35:13.238Z,11.00
2018-03-16T11:37:41.529Z,10.40
2018-03-16T11:40:09.056Z,10.40
2018-03-16T11:42:36.580Z,10.30
2018-03-16T11:45:04.113Z,10.20
2018-03-16T11:47:31.629Z,10.20
2018-03-16T11:49:59.172Z,10.10
2018-03-16T11:52:26.684Z,9.90
2018-03-16T11:54:54.208Z,9.80
2018-03-16T11:57:21.725Z,9.90
2018-03-16T11:59:49.252Z,9.90
2018-03-16T12:02:16.776Z,10.10
2018-03-16T12:04:44.310Z,10.30
2018-03-16T12:07:11.841Z,10.70
2018-03-16T12:09:39.361Z,10.90
2018-03-16T12:12:06.889Z,11.30
2018-03-16T12:14:34.418Z,11.80
2018-03-16T12:17:01.937Z,12.20
2018-03-16T12:19:29.461Z,11.80
2018-03-16T12:21:57.748Z,11.00
2018-03-16T12:24:26.036Z,11.10
2018-03-16T12:26:53.554Z,11.10
2018-03-16T12:29:21.081Z,11.30
2018-03-16T12:31:49.364Z,13.10
2018-03-16T12:34:17.657Z,14.20
2018-03-16T12:36:45.186Z,14.20
2018-03-16T12:39:13.480Z,12.60
2018-03-16T12:41:41.772Z,12.00
2018-03-16T12:44:09.735Z,12.00
2018-03-16T12:46:37.259Z,11.40
2018-03-16T12:49:05.564Z,10.80
2018-03-16T12:51:42.029Z,10.70
2018-03-16T12:54:01.476Z,10.70
2018-03-16T12:56:29.776Z,10.80
2018-03-16T12:58:58.095Z,10.80
2018-03-16T13:01:25.623Z,10.80
2018-03-16T13:03:53.153Z,11.10
2018-03-16T13:06:20.748Z,11.10
2018-03-16T13:08:48.445Z,11.10
2018-03-16T13:11:16.042Z,11.00
2018-03-16T13:13:43.648Z,11.10
2018-03-16T13:16:11.203Z,11.70
2018-03-16T13:18:38.739Z,12.30
2018-03-16T13:21:07.025Z,13.10
2018-03-16T13:23:34.547Z,13.10
2018-03-16T13:26:02.419Z,13.50
2018-03-16T13:28:30.721Z,15.00
2018-03-16T13:30:59.021Z,14.50
2018-03-16T13:33:26.559Z,14.60
2018-03-16T13:35:54.265Z,14.20
2018-03-16T13:38:21.788Z,13.10
2018-03-16T13:40:49.324Z,13.20
2018-03-16T13:43:16.844Z,12.60
2018-03-16T13:45:44.386Z,12.20
2018-03-16T13:48:12.680Z,11.90
2018-03-16T13:50:40.975Z,12.10
2018-03-16T13:53:08.501Z,12.10
2018-03-16T13:55:36.796Z,12.30
2018-03-16T13:58:05.086Z,12.20
2018-03-16T14:00:32.696Z,12.20
2018-03-16T14:03:00.235Z,12.60
2018-03-16T14:05:27.768Z,12.70
2018-03-16T14:07:55.328Z,13.50
2018-03-16T14:10:23.036Z,14.30
2018-03-16T14:12:50.599Z,15.40
2018-03-16T14:15:18.205Z,17.30
2018-03-16T14:17:45.738Z,16.40
2018-03-16T14:20:14.046Z,15.60
2018-03-16T14:22:41.565Z,15.60
2018-03-16T14:25:09.096Z,13.60
2018-03-16T14:27:36.616Z,13.20
2018-03-16T14:30:04.145Z,12.40
2018-03-16T14:32:31.664Z,12.10
2018-03-16T14:34:59.193Z,11.90
2018-03-16T14:37:27.838Z,11.60
2018-03-16T14:39:55.452Z,11.70
2018-03-16T14:42:22.982Z,11.80
2018-03-16T14:44:51.308Z,13.30
2018-03-16T14:47:18.829Z,13.30
2018-03-16T14:49:47.125Z,13.40
2018-03-16T14:52:14.671Z,13.40
2018-03-16T14:54:42.213Z,13.90
2018-03-16T14:57:09.728Z,16.40
2018-03-16T14:59:37.279Z,16.20
2018-03-16T15:02:04.820Z,16.00
2018-03-16T15:04:32.412Z,15.30
2018-03-16T15:07:00.739Z,16.30
2018-03-16T15:09:28.300Z,16.20
2018-03-16T15:11:55.877Z,15.90
2018-03-16T15:14:23.901Z,16.00
2018-03-16T15:16:52.260Z,15.00
2018-03-16T15:19:19.822Z,14.90
2018-03-16T15:21:47.397Z,14.00
2018-03-16T15:24:14.889Z,13.10
2018-03-16T15:26:42.489Z,12.30
2018-03-16T15:29:10.023Z,11.70
2018-03-16T15:31:37.571Z,11.60
2018-03-16T15:34:05.179Z,11.40
2018-03-16T15:36:32.663Z,11.30
2018-03-16T15:39:00.210Z,11.20
2018-03-16T15:41:27.794Z,11.00
2018-03-16T15:43:57.025Z,10.90
2018-03-16T15:46:27.421Z,10.90
2018-03-16T15:48:54.954Z,11.00
2018-03-16T15:51:22.535Z,11.30
2018-03-16T15:53:50.243Z,12.10
2018-03-16T15:56:17.774Z,12.40
2018-03-16T15:58:45.351Z,12.30
2018-03-16T16:01:12.911Z,12.20
2018-03-16T16:03:40.402Z,12.00
2018-03-16T16:06:07.952Z,11.90
2018-03-16T16:08:40.923Z,11.80
2018-03-16T16:11:12.701Z,11.60
2018-03-16T16:13:40.618Z,11.40
2018-03-16T16:16:08.601Z,11.40
2018-03-16T16:18:36.991Z,11.30
2018-03-16T16:21:05.374Z,10.80
2018-03-16T16:23:33.375Z,10.80
2018-03-16T16:26:02.492Z,10.60
2018-03-16T16:28:30.484Z,10.60
2018-03-16T16:31:00.174Z,10.50
2018-03-16T16:33:28.711Z,10.50
2018-03-16T16:35:56.967Z,10.40
2018-03-16T16:38:24.452Z,10.40
2018-03-16T16:40:51.938Z,10.30
2018-03-16T16:43:20.182Z,10.20
2018-03-16T16:45:47.826Z,10.20
2018-03-16T16:48:15.310Z,10.10
2018-03-16T16:50:42.802Z,10.00
2018-03-16T16:53:11.046Z,9.80
2018-03-16T16:55:38.535Z,9.80
2018-03-16T16:58:07.058Z,9.50
2018-03-16T17:00:35.575Z,9.50
2018-03-16T17:03:03.912Z,9.40
2018-03-16T17:05:31.920Z,9.40
2018-03-16T17:07:59.746Z,9.30
2018-03-16T17:10:27.928Z,9.40
2018-03-16T17:12:55.616Z,9.40
2018-03-16T17:15:23.183Z,9.30
2018-03-16T17:17:50.763Z,9.30
2018-03-16T17:20:19.096Z,9.30
2018-03-16T17:22:46.621Z,9.30
2018-03-16T17:25:14.174Z,9.20
2018-03-16T17:27:41.775Z,9.20
2018-03-16T17:30:09.258Z,9.20
2018-03-16T17:32:36.772Z,9.20
2018-03-16T17:35:04.987Z,9.00
2018-03-16T17:37:32.602Z,9.00
2018-03-16T17:40:00.091Z,9.00
2018-03-16T17:42:27.654Z,8.90
2018-03-16T17:44:55.134Z,8.80
2018-03-16T17:47:22.622Z,8.80
2018-03-16T17:49:50.242Z,8.80
2018-03-16T17:52:17.691Z,8.70
2018-03-16T17:54:45.174Z,8.70
2018-03-16T17:57:12.671Z,8.70
2018-03-16T17:59:40.171Z,8.70
2018-03-16T18:02:07.668Z,8.60
2018-03-16T18:04:35.915Z,8.60
2018-03-16T18:07:03.393Z,8.50
2018-03-16T18:12:28.740Z,8.40
2018-03-16T18:14:56.218Z,8.40
2018-03-16T18:17:23.708Z,8.30
2018-03-16T18:19:51.951Z,8.20
2018-03-16T18:22:19.738Z,8.20
2018-03-16T18:24:47.323Z,8.20
2018-03-16T18:27:14.811Z,8.20
2018-03-16T18:29:42.290Z,8.10
2018-03-16T18:32:09.787Z,8.20
2018-03-16T18:34:38.026Z,8.20
2018-03-16T18:37:05.522Z,8.20
2018-03-16T18:39:33.777Z,8.10
2018-03-16T18:42:01.262Z,8.00
2018-03-16T18:44:29.520Z,7.90
2018-03-16T18:46:57.130Z,7.90
2018-03-16T18:49:26.299Z,7.70
2018-03-16T18:51:53.806Z,7.60
2018-03-16T18:54:21.287Z,7.50
2018-03-16T18:56:48.902Z,7.40
2018-03-16T18:59:16.378Z,7.50
2018-03-16T19:01:43.867Z,7.40
2018-03-16T19:04:11.339Z,7.40
2018-03-16T19:06:39.835Z,7.60
2018-03-16T19:09:07.323Z,7.60
2018-03-16T19:11:35.664Z,7.60
2018-03-16T19:14:04.009Z,7.60
2018-03-16T19:16:31.735Z,7.60
2018-03-16T19:18:59.214Z,7.60
2018-03-16T19:21:26.703Z,7.60
2018-03-16T19:23:54.186Z,7.60
2018-03-16T19:26:21.671Z,7.50
2018-03-16T19:28:49.150Z,7.50
2018-03-16T19:31:16.637Z,7.50
2018-03-16T19:33:44.123Z,7.50
2018-03-16T19:36:11.603Z,7.40
2018-03-16T19:38:39.088Z,7.40
2018-03-16T19:41:06.628Z,7.40
2018-03-16T19:43:34.158Z,7.30
2018-03-16T19:46:01.644Z,7.20
2018-03-16T19:48:29.136Z,7.00
2018-03-16T19:50:56.632Z,6.80
2018-03-16T19:53:24.188Z,6.60
2018-03-16T19:55:52.452Z,6.20
2018-03-16T19:58:20.719Z,6.10
2018-03-16T20:00:48.258Z,6.00
2018-03-16T20:03:15.778Z,6.10
2018-03-16T20:05:43.443Z,6.00
2018-03-16T20:08:10.930Z,5.80
2018-03-16T20:10:38.458Z,5.70
2018-03-16T20:13:05.946Z,5.60
2018-03-16T20:15:33.435Z,5.50
2018-03-16T20:18:01.723Z,5.30
2018-03-16T20:20:29.338Z,5.30
2018-03-16T20:22:56.831Z,5.30
2018-03-16T20:25:25.119Z,5.10
2018-03-16T20:27:53.381Z,5.10
2018-03-16T20:30:22.896Z,5.00
2018-03-16T20:32:51.183Z,4.90
2018-03-16T20:35:19.450Z,4.80
2018-03-16T20:37:47.712Z,4.80
2018-03-16T20:40:15.190Z,4.70
2018-03-16T20:42:43.454Z,4.70
2018-03-16T20:45:11.923Z,4.80
2018-03-16T20:47:39.446Z,4.80
2018-03-16T20:50:06.955Z,4.80
2018-03-16T20:52:34.426Z,4.80
2018-03-16T20:55:02.675Z,4.60
2018-03-16T20:57:30.190Z,4.60
2018-03-16T20:59:57.677Z,4.70
2018-03-16T21:02:25.175Z,4.60
2018-03-16T21:04:53.416Z,4.50
2018-03-16T21:07:21.371Z,4.50
2018-03-16T21:09:48.859Z,4.50
2018-03-16T21:12:17.116Z,4.40
2018-03-16T21:14:44.598Z,4.40
2018-03-16T21:17:12.866Z,4.00
2018-03-16T21:19:40.359Z,4.00
2018-03-16T21:22:07.851Z,3.90
2018-03-16T21:24:35.353Z,3.90
2018-03-16T21:27:03.601Z,4.00
2018-03-16T21:29:31.162Z,4.00
2018-03-16T21:31:58.654Z,4.10
2018-03-16T21:34:26.146Z,4.10
2018-03-16T21:36:53.622Z,4.10
2018-03-16T21:39:21.144Z,4.10
2018-03-16T21:41:48.610Z,4.10
2018-03-16T21:44:16.103Z,4.10
2018-03-16T21:46:43.603Z,4.10
2018-03-16T21:49:11.851Z,3.70
2018-03-16T21:51:39.338Z,3.70
2018-03-16T21:54:07.606Z,3.60
2018-03-16T21:56:36.015Z,3.60
2018-03-16T21:59:03.498Z,3.50
2018-03-16T22:01:30.975Z,3.50
2018-03-16T22:03:58.467Z,3.40
2018-03-16T22:06:26.710Z,3.00
2018-03-16T22:08:54.198Z,3.10
2018-03-16T22:11:22.446Z,3.20
2018-03-16T22:13:49.958Z,3.10
2018-03-16T22:16:17.444Z,3.00
2018-03-16T22:18:44.943Z,3.00
2018-03-16T22:21:12.431Z,2.90
2018-03-16T22:23:39.923Z,2.80
2018-03-16T22:26:08.170Z,2.60
2018-03-16T22:28:35.673Z,2.60
2018-03-16T22:31:03.154Z,2.70
2018-03-16T22:33:30.647Z,2.50
2018-03-16T22:35:59.627Z,2.60
2018-03-16T22:38:27.119Z,2.50
2018-03-16T22:40:55.367Z,2.50
2018-03-16T22:43:23.625Z,2.40
2018-03-16T22:45:52.026Z,2.40
2018-03-16T22:48:19.523Z,2.40
2018-03-16T22:50:47.011Z,2.40
2018-03-16T22:53:14.499Z,2.50
2018-03-16T22:55:41.988Z,2.70
2018-03-16T22:58:10.251Z,2.80
2018-03-16T23:00:38.509Z,2.80
2018-03-16T23:03:06.147Z,2.70
2018-03-16T23:05:33.635Z,2.70
2018-03-16T23:08:01.127Z,2.50
2018-03-16T23:10:28.614Z,2.40
2018-03-16T23:12:56.111Z,2.40
2018-03-16T23:15:23.607Z,2.30
2018-03-16T23:17:51.093Z,2.30
2018-03-16T23:20:18.594Z,2.30
2018-03-16T23:22:46.077Z,2.30
2018-03-16T23:25:14.336Z,2.20
2018-03-16T23:27:42.651Z,2.10
2018-03-16T23:30:10.220Z,2.10
2018-03-16T23:32:37.772Z,2.00
2018-03-16T23:35:05.376Z,1.80
2018-03-16T23:37:32.916Z,2.00
2018-03-16T23:40:00.493Z,2.10
2018-03-16T23:42:28.033Z,2.20
2018-03-16T23:44:55.593Z,2.10
2018-03-16T23:47:23.137Z,2.00
2018-03-16T23:49:50.711Z,1.80
2018-03-16T23:52:18.271Z,1.70
2018-03-16T23:54:45.818Z,1.60
2018-03-16T23:57:13.383Z,1.60
2018-03-16T23:59:41.012Z,1.50
